sensor_id;sensor_type;location;lat;lon;timestamp;pressure;altitude;pressure_sealevel;temperature;humidity
3796;BME280;1913;50.660;7.834;2022-09-29T00:01:20;95655.22;;;5.54;100.00
3796;BME280;1913;50.660;7.834;2022-09-29T00:03:45;95656.03;;;5.55;100.00
3796;BME280;1913;50.660;7.834;2022-09-29T00:06:13;95655.69;;;5.44;100.00
3796;BME280;1913;50.660;7.834;2022-09-29T00:08:39;95652.47;;;5.42;100.00
3796;BME280;1913;50.660;7.834;2022-09-29T00:11:15;95654.31;;;5.35;100.00
3796;BME280;1913;50.660;7.834;2022-09-29T00:13:42;95651.94;;;5.27;100.00
3796;BME280;1913;50.660;7.834;2022-09-29T00:16:07;95658.34;;;5.31;100.00
3796;BME280;1913;50.660;7.834;2022-09-29T00:18:33;95661.53;;;5.33;100.00
3796;BME280;1913;50.660;7.834;2022-09-29T00:21:03;95654.69;;;5.39;100.00
3796;BME280;1913;50.660;7.834;2022-09-29T00:23:30;95666.72;;;5.33;100.00
3796;BME280;1913;50.660;7.834;2022-09-29T00:26:06;95657.56;;;5.24;100.00
3796;BME280;1913;50.660;7.834;2022-09-29T00:28:33;95659.78;;;5.27;100.00
3796;BME280;1913;50.660;7.834;2022-09-29T00:30:59;95659.56;;;5.22;100.00
3796;BME280;1913;50.660;7.834;2022-09-29T00:33:32;95659.81;;;5.07;100.00
3796;BME280;1913;50.660;7.834;2022-09-29T00:35:59;95656.03;;;5.03;100.00
3796;BME280;1913;50.660;7.834;2022-09-29T00:38:26;95656.22;;;5.01;100.00
3796;BME280;1913;50.660;7.834;2022-09-29T00:40:52;95652.84;;;4.94;100.00
3796;BME280;1913;50.660;7.834;2022-09-29T00:46:06;95659.50;;;4.77;100.00
3796;BME280;1913;50.660;7.834;2022-09-29T00:48:32;95656.50;;;4.73;100.00
3796;BME280;1913;50.660;7.834;2022-09-29T00:50:58;95655.28;;;4.69;100.00
3796;BME280;1913;50.660;7.834;2022-09-29T00:53:24;95656.91;;;4.50;100.00
3796;BME280;1913;50.660;7.834;2022-09-29T00:56:02;95652.72;;;4.49;100.00
3796;BME280;1913;50.660;7.834;2022-09-29T01:01:00;95658.72;;;4.37;100.00
3796;BME280;1913;50.660;7.834;2022-09-29T01:03:29;95648.31;;;4.30;100.00
3796;BME280;1913;50.660;7.834;2022-09-29T01:06:02;95650.13;;;4.23;100.00
3796;BME280;1913;50.660;7.834;2022-09-29T01:08:47;95649.53;;;4.21;100.00
3796;BME280;1913;50.660;7.834;2022-09-29T01:11:18;95655.75;;;4.13;100.00
3796;BME280;1913;50.660;7.834;2022-09-29T01:13:45;95647.53;;;4.10;100.00
3796;BME280;1913;50.660;7.834;2022-09-29T01:16:11;95644.13;;;4.16;100.00
3796;BME280;1913;50.660;7.834;2022-09-29T01:18:36;95644.34;;;4.27;100.00
3796;BME280;1913;50.660;7.834;2022-09-29T01:23:56;95644.53;;;4.26;100.00
3796;BME280;1913;50.660;7.834;2022-09-29T01:26:50;95645.72;;;4.30;100.00
3796;BME280;1913;50.660;7.834;2022-09-29T01:32:15;95652.13;;;4.27;100.00
3796;BME280;1913;50.660;7.834;2022-09-29T01:35:03;95656.16;;;4.23;100.00
3796;BME280;1913;50.660;7.834;2022-09-29T01:40:17;95658.13;;;4.35;100.00
3796;BME280;1913;50.660;7.834;2022-09-29T01:43:04;95652.72;;;4.29;100.00
3796;BME280;1913;50.660;7.834;2022-09-29T01:45:37;95656.34;;;4.42;100.00
3796;BME280;1913;50.660;7.834;2022-09-29T01:48:07;95652.94;;;4.35;100.00
3796;BME280;1913;50.660;7.834;2022-09-29T01:50:38;95660.75;;;4.41;100.00
3796;BME280;1913;50.660;7.834;2022-09-29T01:53:12;95653.34;;;4.38;100.00
3796;BME280;1913;50.660;7.834;2022-09-29T01:55:47;95667.31;;;4.44;100.00
3796;BME280;1913;50.660;7.834;2022-09-29T01:58:19;95661.53;;;4.42;100.00
3796;BME280;1913;50.660;7.834;2022-09-29T02:00:50;95654.34;;;4.30;100.00
3796;BME280;1913;50.660;7.834;2022-09-29T02:03:30;95657.75;;;4.31;100.00
3796;BME280;1913;50.660;7.834;2022-09-29T02:06:03;95654.13;;;4.25;100.00
3796;BME280;1913;50.660;7.834;2022-09-29T02:08:44;95652.72;;;4.23;100.00
3796;BME280;1913;50.660;7.834;2022-09-29T02:11:13;95664.53;;;4.19;100.00
3796;BME280;1913;50.660;7.834;2022-09-29T02:13:46;95656.72;;;4.12;100.00
3796;BME280;1913;50.660;7.834;2022-09-29T02:16:16;95653.50;;;3.97;100.00
3796;BME280;1913;50.660;7.834;2022-09-29T02:19:07;95648.28;;;3.83;100.00
3796;BME280;1913;50.660;7.834;2022-09-29T02:21:34;95660.47;;;3.76;100.00
3796;BME280;1913;50.660;7.834;2022-09-29T02:24:00;95658.06;;;3.68;100.00
3796;BME280;1913;50.660;7.834;2022-09-29T02:26:29;95649.63;;;3.46;100.00
3796;BME280;1913;50.660;7.834;2022-09-29T02:28:55;95655.56;;;3.40;100.00
3796;BME280;1913;50.660;7.834;2022-09-29T02:31:21;95655.19;;;3.43;100.00
3796;BME280;1913;50.660;7.834;2022-09-29T02:33:47;95658.34;;;3.32;100.00
3796;BME280;1913;50.660;7.834;2022-09-29T02:36:41;95654.97;;;3.31;100.00
3796;BME280;1913;50.660;7.834;2022-09-29T02:42:28;95661.75;;;3.32;100.00
3796;BME280;1913;50.660;7.834;2022-09-29T02:53:48;95658.19;;;3.47;100.00
3796;BME280;1913;50.660;7.834;2022-09-29T02:59:20;95667.97;;;3.38;100.00
3796;BME280;1913;50.660;7.834;2022-09-29T03:01:53;95665.38;;;3.38;100.00
3796;BME280;1913;50.660;7.834;2022-09-29T03:04:24;95663.97;;;3.42;100.00
3796;BME280;1913;50.660;7.834;2022-09-29T03:06:51;95667.97;;;3.38;100.00
3796;BME280;1913;50.660;7.834;2022-09-29T03:09:17;95664.56;;;3.31;100.00
3796;BME280;1913;50.660;7.834;2022-09-29T03:11:42;95666.75;;;3.41;100.00
3796;BME280;1913;50.660;7.834;2022-09-29T03:14:08;95658.97;;;3.41;100.00
3796;BME280;1913;50.660;7.834;2022-09-29T03:16:34;95667.00;;;3.46;100.00
3796;BME280;1913;50.660;7.834;2022-09-29T03:19:01;95659.59;;;3.43;100.00
3796;BME280;1913;50.660;7.834;2022-09-29T03:21:26;95660.34;;;3.36;100.00
3796;BME280;1913;50.660;7.834;2022-09-29T03:23:52;95661.94;;;3.38;100.00
3796;BME280;1913;50.660;7.834;2022-09-29T03:26:17;95658.13;;;3.27;100.00
3796;BME280;1913;50.660;7.834;2022-09-29T03:28:44;95663.94;;;3.29;100.00
3796;BME280;1913;50.660;7.834;2022-09-29T03:31:09;95659.84;;;3.13;100.00
3796;BME280;1913;50.660;7.834;2022-09-29T03:33:35;95664.63;;;3.09;100.00
3796;BME280;1913;50.660;7.834;2022-09-29T03:36:03;95670.84;;;3.15;100.00
3796;BME280;1913;50.660;7.834;2022-09-29T03:38:30;95669.06;;;3.16;100.00
3796;BME280;1913;50.660;7.834;2022-09-29T03:40:55;95667.50;;;3.21;100.00
3796;BME280;1913;50.660;7.834;2022-09-29T03:43:21;95667.50;;;3.21;100.00
3796;BME280;1913;50.660;7.834;2022-09-29T03:45:48;95676.84;;;3.16;100.00
3796;BME280;1913;50.660;7.834;2022-09-29T03:48:14;95671.47;;;3.17;100.00
3796;BME280;1913;50.660;7.834;2022-09-29T03:50:39;95662.84;;;3.10;100.00
3796;BME280;1913;50.660;7.834;2022-09-29T03:53:04;95670.06;;;3.15;100.00
3796;BME280;1913;50.660;7.834;2022-09-29T03:55:30;95667.63;;;3.13;100.00
3796;BME280;1913;50.660;7.834;2022-09-29T03:57:55;95672.63;;;3.08;100.00
3796;BME280;1913;50.660;7.834;2022-09-29T04:00:21;95676.84;;;3.16;100.00
3796;BME280;1913;50.660;7.834;2022-09-29T04:02:46;95677.00;;;3.07;100.00
3796;BME280;1913;50.660;7.834;2022-09-29T04:05:12;95679.81;;;3.12;100.00
3796;BME280;1913;50.660;7.834;2022-09-29T04:07:37;95686.78;;;3.05;100.00
3796;BME280;1913;50.660;7.834;2022-09-29T04:10:03;95692.09;;;2.91;100.00
3796;BME280;1913;50.660;7.834;2022-09-29T04:12:28;95696.06;;;2.86;100.00
3796;BME280;1913;50.660;7.834;2022-09-29T04:14:54;95692.84;;;2.84;100.00
3796;BME280;1913;50.660;7.834;2022-09-29T04:17:19;95692.19;;;2.76;100.00
3796;BME280;1913;50.660;7.834;2022-09-29T04:19:45;95699.22;;;2.82;100.00
3796;BME280;1913;50.660;7.834;2022-09-29T04:22:11;95694.78;;;2.76;100.00
3796;BME280;1913;50.660;7.834;2022-09-29T04:24:38;95694.38;;;2.72;100.00
3796;BME280;1913;50.660;7.834;2022-09-29T04:27:04;95694.38;;;2.72;100.00
3796;BME280;1913;50.660;7.834;2022-09-29T04:29:29;95697.59;;;2.74;100.00
3796;BME280;1913;50.660;7.834;2022-09-29T04:31:55;95690.41;;;2.76;100.00
3796;BME280;1913;50.660;7.834;2022-09-29T04:34:20;95695.97;;;2.73;100.00
3796;BME280;1913;50.660;7.834;2022-09-29T04:36:46;95692.09;;;2.62;100.00
3796;BME280;1913;50.660;7.834;2022-09-29T04:39:11;95700.13;;;2.68;100.00
3796;BME280;1913;50.660;7.834;2022-09-29T04:41:37;95699.09;;;2.62;100.00
3796;BME280;1913;50.660;7.834;2022-09-29T04:44:04;95699.56;;;2.72;100.00
3796;BME280;1913;50.660;7.834;2022-09-29T04:46:30;95696.75;;;2.74;100.00
3796;BME280;1913;50.660;7.834;2022-09-29T04:48:55;95701.72;;;2.69;100.00
3796;BME280;1913;50.660;7.834;2022-09-29T04:51:21;95703.94;;;2.72;100.00
3796;BME280;1913;50.660;7.834;2022-09-29T04:53:46;95704.53;;;2.67;100.00
3796;BME280;1913;50.660;7.834;2022-09-29T04:56:12;95706.13;;;2.68;100.00
3796;BME280;1913;50.660;7.834;2022-09-29T04:58:37;95694.38;;;2.72;100.00
3796;BME280;1913;50.660;7.834;2022-09-29T05:01:10;95689.19;;;2.72;100.00
3796;BME280;1913;50.660;7.834;2022-09-29T05:03:38;95697.75;;;2.73;100.00
3796;BME280;1913;50.660;7.834;2022-09-29T05:06:04;95699.56;;;2.72;100.00
3796;BME280;1913;50.660;7.834;2022-09-29T05:08:30;95703.56;;;2.75;100.00
3796;BME280;1913;50.660;7.834;2022-09-29T05:10:55;95704.38;;;2.75;100.00
3796;BME280;1913;50.660;7.834;2022-09-29T05:13:21;95703.16;;;2.71;100.00
3796;BME280;1913;50.660;7.834;2022-09-29T05:15:46;95707.53;;;2.71;100.00
3796;BME280;1913;50.660;7.834;2022-09-29T05:18:12;95709.13;;;2.72;100.00
3796;BME280;1913;50.660;7.834;2022-09-29T05:20:37;95704.31;;;2.69;100.00
3796;BME280;1913;50.660;7.834;2022-09-29T05:23:02;95708.28;;;2.64;100.00
3796;BME280;1913;50.660;7.834;2022-09-29T05:25:35;95713.66;;;2.63;100.00
3796;BME280;1913;50.660;7.834;2022-09-29T05:28:00;95713.63;;;2.56;100.00
3796;BME280;1913;50.660;7.834;2022-09-29T05:30:26;95721.19;;;2.58;100.00
3796;BME280;1913;50.660;7.834;2022-09-29T05:32:51;95715.78;;;2.53;100.00
3796;BME280;1913;50.660;7.834;2022-09-29T05:35:16;95715.22;;;2.57;100.00
3796;BME280;1913;50.660;7.834;2022-09-29T05:37:42;95714.22;;;2.58;100.00
3796;BME280;1913;50.660;7.834;2022-09-29T05:40:07;95723.06;;;2.64;100.00
3796;BME280;1913;50.660;7.834;2022-09-29T05:42:34;95717.75;;;2.79;100.00
3796;BME280;1913;50.660;7.834;2022-09-29T05:44:59;95723.38;;;2.82;100.00
3796;BME280;1913;50.660;7.834;2022-09-29T05:47:25;95728.72;;;2.81;100.00
3796;BME280;1913;50.660;7.834;2022-09-29T05:49:51;95719.19;;;2.81;100.00
3796;BME280;1913;50.660;7.834;2022-09-29T05:52:16;95723.84;;;2.93;100.00
3796;BME280;1913;50.660;7.834;2022-09-29T05:54:42;95726.84;;;2.96;100.00
3796;BME280;1913;50.660;7.834;2022-09-29T05:57:07;95733.34;;;3.14;100.00
3796;BME280;1913;50.660;7.834;2022-09-29T05:59:32;95733.19;;;3.22;100.00
3796;BME280;1913;50.660;7.834;2022-09-29T06:01:58;95732.66;;;3.33;100.00
3796;BME280;1913;50.660;7.834;2022-09-29T06:04:23;95733.97;;;3.57;100.00
3796;BME280;1913;50.660;7.834;2022-09-29T06:06:49;95732.78;;;3.66;100.00
3796;BME280;1913;50.660;7.834;2022-09-29T06:09:14;95735.81;;;3.76;100.00
3796;BME280;1913;50.660;7.834;2022-09-29T06:11:39;95741.28;;;3.88;100.00
3796;BME280;1913;50.660;7.834;2022-09-29T06:14:05;95739.31;;;4.03;100.00
3796;BME280;1913;50.660;7.834;2022-09-29T06:16:31;95737.53;;;4.17;100.00
3796;BME280;1913;50.660;7.834;2022-09-29T06:19:01;95739.34;;;4.30;100.00
3796;BME280;1913;50.660;7.834;2022-09-29T06:21:29;95738.19;;;4.52;100.00
3796;BME280;1913;50.660;7.834;2022-09-29T06:23:55;95746.56;;;4.61;100.00
3796;BME280;1913;50.660;7.834;2022-09-29T06:26:22;95741.78;;;4.71;100.00
3796;BME280;1913;50.660;7.834;2022-09-29T06:28:48;95738.78;;;4.81;100.00
3796;BME280;1913;50.660;7.834;2022-09-29T06:31:16;95746.16;;;5.04;100.00
3796;BME280;1913;50.660;7.834;2022-09-29T06:33:42;95742.91;;;5.28;100.00
3796;BME280;1913;50.660;7.834;2022-09-29T06:36:17;95741.81;;;5.56;100.00
3796;BME280;1913;50.660;7.834;2022-09-29T06:39:04;95753.91;;;5.89;100.00
3796;BME280;1913;50.660;7.834;2022-09-29T06:41:30;95747.38;;;6.18;100.00
3796;BME280;1913;50.660;7.834;2022-09-29T06:43:56;95746.66;;;6.36;100.00
3796;BME280;1913;50.660;7.834;2022-09-29T06:46:21;95750.81;;;6.43;100.00
3796;BME280;1913;50.660;7.834;2022-09-29T06:48:47;95753.22;;;6.77;100.00
3796;BME280;1913;50.660;7.834;2022-09-29T06:51:12;95755.75;;;7.08;100.00
3796;BME280;1913;50.660;7.834;2022-09-29T06:53:39;95755.19;;;7.43;100.00
3796;BME280;1913;50.660;7.834;2022-09-29T06:56:05;95762.41;;;7.66;100.00
3796;BME280;1913;50.660;7.834;2022-09-29T06:58:31;95757.06;;;7.91;100.00
3796;BME280;1913;50.660;7.834;2022-09-29T07:01:00;95767.00;;;8.31;100.00
3796;BME280;1913;50.660;7.834;2022-09-29T07:03:30;95750.97;;;8.57;100.00
3796;BME280;1913;50.660;7.834;2022-09-29T07:05:55;95753.47;;;8.64;100.00
3796;BME280;1913;50.660;7.834;2022-09-29T07:08:21;95757.50;;;9.02;100.00
3796;BME280;1913;50.660;7.834;2022-09-29T07:10:46;95764.47;;;9.20;100.00
3796;BME280;1913;50.660;7.834;2022-09-29T07:13:12;95762.06;;;9.53;100.00
3796;BME280;1913;50.660;7.834;2022-09-29T07:15:37;95757.25;;;9.62;100.00
3796;BME280;1913;50.660;7.834;2022-09-29T07:18:03;95760.84;;;9.84;100.00
3796;BME280;1913;50.660;7.834;2022-09-29T07:20:29;95759.88;;;10.02;100.00
3796;BME280;1913;50.660;7.834;2022-09-29T07:22:56;95756.50;;;10.30;100.00
3796;BME280;1913;50.660;7.834;2022-09-29T07:25:22;95762.38;;;10.49;100.00
3796;BME280;1913;50.660;7.834;2022-09-29T07:27:48;95757.13;;;10.66;100.00
3796;BME280;1913;50.660;7.834;2022-09-29T07:30:16;95767.66;;;11.00;100.00
3796;BME280;1913;50.660;7.834;2022-09-29T07:32:41;95760.31;;;11.19;100.00
3796;BME280;1913;50.660;7.834;2022-09-29T07:35:07;95768.25;;;11.41;100.00
3796;BME280;1913;50.660;7.834;2022-09-29T07:37:33;95770.88;;;11.41;100.00
3796;BME280;1913;50.660;7.834;2022-09-29T07:39:58;95766.41;;;11.80;100.00
3796;BME280;1913;50.660;7.834;2022-09-29T07:42:26;95770.84;;;11.96;100.00
3796;BME280;1913;50.660;7.834;2022-09-29T07:44:51;95776.00;;;12.62;100.00
3796;BME280;1913;50.660;7.834;2022-09-29T07:47:18;95768.38;;;12.93;100.00
3796;BME280;1913;50.660;7.834;2022-09-29T07:49:44;95774.31;;;13.43;100.00
3796;BME280;1913;50.660;7.834;2022-09-29T07:52:11;95766.81;;;13.72;100.00
3796;BME280;1913;50.660;7.834;2022-09-29T07:54:36;95773.31;;;13.59;100.00
3796;BME280;1913;50.660;7.834;2022-09-29T07:57:02;95775.69;;;14.08;100.00
3796;BME280;1913;50.660;7.834;2022-09-29T07:59:28;95774.94;;;14.18;100.00
3796;BME280;1913;50.660;7.834;2022-09-29T08:01:54;95770.28;;;13.82;100.00
3796;BME280;1913;50.660;7.834;2022-09-29T08:04:20;95771.69;;;13.95;100.00
3796;BME280;1913;50.660;7.834;2022-09-29T08:06:46;95780.56;;;14.47;100.00
3796;BME280;1913;50.660;7.834;2022-09-29T08:09:12;95777.50;;;14.91;100.00
3796;BME280;1913;50.660;7.834;2022-09-29T08:11:39;95781.69;;;15.43;100.00
3796;BME280;1913;50.660;7.834;2022-09-29T08:14:05;95779.78;;;15.64;100.00
3796;BME280;1913;50.660;7.834;2022-09-29T08:16:31;95782.47;;;15.69;100.00
3796;BME280;1913;50.660;7.834;2022-09-29T08:18:57;95783.66;;;16.07;100.00
3796;BME280;1913;50.660;7.834;2022-09-29T08:21:23;95787.66;;;15.99;100.00
3796;BME280;1913;50.660;7.834;2022-09-29T08:23:48;95793.00;;;16.49;100.00
3796;BME280;1913;50.660;7.834;2022-09-29T08:26:17;95791.63;;;17.06;100.00
3796;BME280;1913;50.660;7.834;2022-09-29T08:28:43;95788.75;;;17.32;100.00
3796;BME280;1913;50.660;7.834;2022-09-29T08:31:17;95798.94;;;17.83;100.00
3796;BME280;1913;50.660;7.834;2022-09-29T08:33:44;95797.84;;;17.84;100.00
3796;BME280;1913;50.660;7.834;2022-09-29T08:36:10;95803.88;;;18.56;96.25
3796;BME280;1913;50.660;7.834;2022-09-29T08:38:40;95805.59;;;18.90;92.73
3796;BME280;1913;50.660;7.834;2022-09-29T08:41:49;95798.59;;;19.59;98.53
3796;BME280;1913;50.660;7.834;2022-09-29T08:44:24;95803.28;;;19.81;87.30
3796;BME280;1913;50.660;7.834;2022-09-29T08:46:55;95811.00;;;19.83;84.79
3796;BME280;1913;50.660;7.834;2022-09-29T08:49:30;95810.63;;;20.03;84.67
3796;BME280;1913;50.660;7.834;2022-09-29T08:52:05;95817.94;;;20.53;79.91
3796;BME280;1913;50.660;7.834;2022-09-29T08:54:39;95815.97;;;20.03;72.80
3796;BME280;1913;50.660;7.834;2022-09-29T08:57:12;95823.09;;;20.22;82.82
3796;BME280;1913;50.660;7.834;2022-09-29T08:59:54;95823.16;;;19.75;69.49
3796;BME280;1913;50.660;7.834;2022-09-29T09:08:12;95826.44;;;18.83;88.87
3796;BME280;1913;50.660;7.834;2022-09-29T09:10:45;95821.50;;;19.28;88.11
3796;BME280;1913;50.660;7.834;2022-09-29T09:21:42;95830.97;;;17.91;81.50
3796;BME280;1913;50.660;7.834;2022-09-29T09:26:58;95837.22;;;16.64;100.00
3796;BME280;1913;50.660;7.834;2022-09-29T09:29:30;95834.16;;;16.41;100.00
3796;BME280;1913;50.660;7.834;2022-09-29T09:32:43;95838.50;;;16.77;100.00
3796;BME280;1913;50.660;7.834;2022-09-29T09:34:55;95836.44;;;17.42;95.51
3796;BME280;1913;50.660;7.834;2022-09-29T09:37:27;95835.44;;;17.67;100.00
3796;BME280;1913;50.660;7.834;2022-09-29T09:40:24;95836.59;;;18.57;86.69
3796;BME280;1913;50.660;7.834;2022-09-29T09:43:13;95828.69;;;19.27;80.02
3796;BME280;1913;50.660;7.834;2022-09-29T09:45:54;95824.50;;;19.40;67.74
3796;BME280;1913;50.660;7.834;2022-09-29T09:51:00;95831.28;;;18.57;76.86
3796;BME280;1913;50.660;7.834;2022-09-29T09:53:35;95827.31;;;18.11;82.73
3796;BME280;1913;50.660;7.834;2022-09-29T10:01:33;95837.03;;;17.05;100.00
3796;BME280;1913;50.660;7.834;2022-09-29T10:04:00;95837.47;;;17.46;100.00
3796;BME280;1913;50.660;7.834;2022-09-29T10:06:26;95831.03;;;18.10;98.49
3796;BME280;1913;50.660;7.834;2022-09-29T10:08:52;95837.44;;;18.95;90.55
3796;BME280;1913;50.660;7.834;2022-09-29T10:11:24;95839.19;;;20.03;73.61
3796;BME280;1913;50.660;7.834;2022-09-29T10:14:03;95845.41;;;21.40;65.13
3796;BME280;1913;50.660;7.834;2022-09-29T10:16:43;95843.75;;;20.94;57.82
3796;BME280;1913;50.660;7.834;2022-09-29T10:19:10;95842.94;;;20.57;60.23
3796;BME280;1913;50.660;7.834;2022-09-29T10:21:38;95843.22;;;20.14;65.67
3796;BME280;1913;50.660;7.834;2022-09-29T10:24:18;95843.38;;;19.44;64.90
3796;BME280;1913;50.660;7.834;2022-09-29T10:26:46;95840.72;;;18.68;77.17
3796;BME280;1913;50.660;7.834;2022-09-29T10:29:21;95846.28;;;17.76;90.79
3796;BME280;1913;50.660;7.834;2022-09-29T10:32:13;95852.53;;;16.82;99.27
3796;BME280;1913;50.660;7.834;2022-09-29T10:34:48;95851.56;;;16.63;100.00
3796;BME280;1913;50.660;7.834;2022-09-29T10:42:45;95856.28;;;15.96;100.00
3796;BME280;1913;50.660;7.834;2022-09-29T10:52:56;95858.72;;;16.62;100.00
3796;BME280;1913;50.660;7.834;2022-09-29T10:57:51;95859.94;;;16.90;100.00
3796;BME280;1913;50.660;7.834;2022-09-29T11:02:51;95856.59;;;15.84;100.00
3796;BME280;1913;50.660;7.834;2022-09-29T11:05:20;95860.03;;;15.23;100.00
3796;BME280;1913;50.660;7.834;2022-09-29T11:07:50;95862.88;;;14.66;100.00
3796;BME280;1913;50.660;7.834;2022-09-29T11:10:30;95860.31;;;15.32;100.00
3796;BME280;1913;50.660;7.834;2022-09-29T11:12:55;95866.38;;;15.58;100.00
3796;BME280;1913;50.660;7.834;2022-09-29T11:15:38;95863.75;;;15.38;100.00
3796;BME280;1913;50.660;7.834;2022-09-29T11:18:28;95868.50;;;15.10;100.00
3796;BME280;1913;50.660;7.834;2022-09-29T11:26:46;95870.31;;;14.26;100.00
3796;BME280;1913;50.660;7.834;2022-09-29T11:32:15;95878.63;;;13.98;100.00
3796;BME280;1913;50.660;7.834;2022-09-29T11:35:17;95873.00;;;13.41;100.00
3796;BME280;1913;50.660;7.834;2022-09-29T11:43:43;95884.97;;;12.73;100.00
3796;BME280;1913;50.660;7.834;2022-09-29T11:51:37;95878.78;;;11.96;100.00
3796;BME280;1913;50.660;7.834;2022-09-29T12:00:08;95889.63;;;11.83;100.00
3796;BME280;1913;50.660;7.834;2022-09-29T12:05:27;95889.16;;;11.86;100.00
3796;BME280;1913;50.660;7.834;2022-09-29T12:16:17;95890.19;;;11.51;100.00
3796;BME280;1913;50.660;7.834;2022-09-29T12:18:48;95887.16;;;11.26;100.00
3796;BME280;1913;50.660;7.834;2022-09-29T12:21:27;95891.84;;;11.24;100.00
3796;BME280;1913;50.660;7.834;2022-09-29T12:23:54;95888.91;;;11.20;100.00
3796;BME280;1913;50.660;7.834;2022-09-29T12:26:22;95889.75;;;11.09;100.00
3796;BME280;1913;50.660;7.834;2022-09-29T12:29:01;95895.75;;;11.05;100.00
3796;BME280;1913;50.660;7.834;2022-09-29T12:31:40;95888.09;;;11.03;100.00
3796;BME280;1913;50.660;7.834;2022-09-29T12:36:50;95894.50;;;10.78;100.00
3796;BME280;1913;50.660;7.834;2022-09-29T12:42:44;95887.16;;;10.52;100.00
3796;BME280;1913;50.660;7.834;2022-09-29T12:45:18;95889.34;;;10.43;100.00
3796;BME280;1913;50.660;7.834;2022-09-29T12:51:16;95894.63;;;10.20;100.00
3796;BME280;1913;50.660;7.834;2022-09-29T12:54:02;95892.13;;;10.37;100.00
3796;BME280;1913;50.660;7.834;2022-09-29T12:56:38;95892.06;;;10.48;100.00
3796;BME280;1913;50.660;7.834;2022-09-29T13:01:46;95889.47;;;11.22;100.00
3796;BME280;1913;50.660;7.834;2022-09-29T13:17:35;95897.06;;;12.25;100.00
3796;BME280;1913;50.660;7.834;2022-09-29T13:28:34;95898.16;;;15.38;100.00
3796;BME280;1913;50.660;7.834;2022-09-29T13:31:07;95900.81;;;15.53;100.00
3796;BME280;1913;50.660;7.834;2022-09-29T13:33:34;95903.72;;;15.41;100.00
3796;BME280;1913;50.660;7.834;2022-09-29T13:36:00;95915.00;;;14.85;100.00
3796;BME280;1913;50.660;7.834;2022-09-29T13:38:32;95904.06;;;14.09;100.00
3796;BME280;1913;50.660;7.834;2022-09-29T13:41:15;95913.56;;;13.35;100.00
3796;BME280;1913;50.660;7.834;2022-09-29T13:51:49;95908.25;;;12.37;100.00
3796;BME280;1913;50.660;7.834;2022-09-29T13:56:57;95909.00;;;11.77;100.00
3796;BME280;1913;50.660;7.834;2022-09-29T13:59:24;95912.34;;;11.56;100.00
3796;BME280;1913;50.660;7.834;2022-09-29T14:01:51;95915.38;;;11.47;100.00
3796;BME280;1913;50.660;7.834;2022-09-29T14:07:35;95917.56;;;11.84;100.00
3796;BME280;1913;50.660;7.834;2022-09-29T14:10:38;95919.84;;;11.81;100.00
3796;BME280;1913;50.660;7.834;2022-09-29T14:19:04;95926.00;;;11.69;100.00
3796;BME280;1913;50.660;7.834;2022-09-29T14:21:50;95925.34;;;11.62;100.00
3796;BME280;1913;50.660;7.834;2022-09-29T14:29:48;95935.16;;;11.50;100.00
3796;BME280;1913;50.660;7.834;2022-09-29T14:32:32;95931.94;;;11.31;100.00
3796;BME280;1913;50.660;7.834;2022-09-29T14:35:00;95930.69;;;11.34;100.00
3796;BME280;1913;50.660;7.834;2022-09-29T14:37:26;95933.34;;;11.05;100.00
3796;BME280;1913;50.660;7.834;2022-09-29T14:39:53;95935.56;;;10.96;100.00
3796;BME280;1913;50.660;7.834;2022-09-29T14:42:38;95942.00;;;10.89;100.00
3796;BME280;1913;50.660;7.834;2022-09-29T14:45:05;95944.78;;;10.70;100.00
3796;BME280;1913;50.660;7.834;2022-09-29T14:48:00;95951.31;;;10.68;100.00
3796;BME280;1913;50.660;7.834;2022-09-29T14:53:53;95956.84;;;10.43;100.00
3796;BME280;1913;50.660;7.834;2022-09-29T14:58:57;95965.94;;;10.52;100.00
3796;BME280;1913;50.660;7.834;2022-09-29T15:01:28;95967.41;;;10.60;100.00
3796;BME280;1913;50.660;7.834;2022-09-29T15:03:57;95967.94;;;10.73;100.00
3796;BME280;1913;50.660;7.834;2022-09-29T15:06:28;95962.03;;;10.66;100.00
3796;BME280;1913;50.660;7.834;2022-09-29T15:09:14;95962.31;;;10.53;100.00
3796;BME280;1913;50.660;7.834;2022-09-29T15:11:47;95963.31;;;10.64;100.00
3796;BME280;1913;50.660;7.834;2022-09-29T15:25:20;95969.09;;;11.35;100.00
3796;BME280;1913;50.660;7.834;2022-09-29T15:27:55;95970.16;;;11.50;100.00
3796;BME280;1913;50.660;7.834;2022-09-29T15:30:23;95965.25;;;11.71;100.00
3796;BME280;1913;50.660;7.834;2022-09-29T15:32:49;95971.84;;;11.73;100.00
3796;BME280;1913;50.660;7.834;2022-09-29T15:35:22;95972.47;;;11.81;100.00
3796;BME280;1913;50.660;7.834;2022-09-29T15:40:22;95976.09;;;11.91;100.00
3796;BME280;1913;50.660;7.834;2022-09-29T15:42:49;95977.94;;;12.08;100.00
3796;BME280;1913;50.660;7.834;2022-09-29T15:45:25;95979.81;;;12.29;100.00
3796;BME280;1913;50.660;7.834;2022-09-29T15:48:05;95980.59;;;12.46;100.00
3796;BME280;1913;50.660;7.834;2022-09-29T15:50:32;95979.19;;;12.61;100.00
3796;BME280;1913;50.660;7.834;2022-09-29T15:53:00;95987.53;;;12.75;100.00
3796;BME280;1913;50.660;7.834;2022-09-29T15:55:29;95992.06;;;12.79;100.00
3796;BME280;1913;50.660;7.834;2022-09-29T15:57:55;95998.56;;;12.72;100.00
3796;BME280;1913;50.660;7.834;2022-09-29T16:05:31;96004.50;;;12.62;100.00
3796;BME280;1913;50.660;7.834;2022-09-29T16:10:53;96007.53;;;12.32;100.00
3796;BME280;1913;50.660;7.834;2022-09-29T16:13:21;96012.88;;;12.03;100.00
3796;BME280;1913;50.660;7.834;2022-09-29T16:15:50;96009.66;;;11.67;100.00
3796;BME280;1913;50.660;7.834;2022-09-29T16:18:25;96017.06;;;11.70;100.00
3796;BME280;1913;50.660;7.834;2022-09-29T16:20:53;96020.78;;;11.58;100.00
3796;BME280;1913;50.660;7.834;2022-09-29T16:28:39;96035.44;;;10.85;100.00
3796;BME280;1913;50.660;7.834;2022-09-29T16:31:14;96037.22;;;10.67;100.00
3796;BME280;1913;50.660;7.834;2022-09-29T16:33:43;96038.81;;;10.45;100.00
3796;BME280;1913;50.660;7.834;2022-09-29T16:36:13;96038.91;;;10.15;100.00
3796;BME280;1913;50.660;7.834;2022-09-29T16:38:48;96041.03;;;9.94;100.00
3796;BME280;1913;50.660;7.834;2022-09-29T16:41:37;96047.34;;;9.63;100.00
3796;BME280;1913;50.660;7.834;2022-09-29T16:46:50;96058.03;;;9.20;100.00
3796;BME280;1913;50.660;7.834;2022-09-29T16:49:24;96052.38;;;9.04;100.00
3796;BME280;1913;50.660;7.834;2022-09-29T16:51:51;96064.41;;;8.94;100.00
3796;BME280;1913;50.660;7.834;2022-09-29T16:54:26;96067.09;;;8.87;100.00
3796;BME280;1913;50.660;7.834;2022-09-29T16:57:15;96061.53;;;8.58;100.00